Marblehead, MA (01945)

4:47 AM EST on February 25, 2017 (GMT -0500)
Clifton | | Change Station

Elev 53 ft 42.48 °N, 70.88 °W | Updated 76 days ago

Overcast
Overcast
25.2 °F
Feels Like 25 °F
N
0.0
Wind Variable Wind from North

Today
High -- | Low -- °F
--% Chance of Precip.
Yesterday
High -- | Low -- °F
Precip. -- in
Pressure 29.84 in
Visibility 6.0 miles
Clouds Overcast 300 ft
Windchill 25 °F
Dew Point 4 °F
Humidity 40%
Rainfall 0.00 in
Snow Depth Not available.
6:24 AM 5:28 PM
Waning Crescent, 2% visible
METAR KBVY 250853Z AUTO 17006KT 6SM BR OVC003 13/13 A2985 RMK AO2 RAE0758 SLP103 P0000 60000 T01280128 56005
Pressure 29.84 in
Visibility 6.0 miles
Clouds Overcast 300 ft
Windchill 25 °F
Dew Point 4 °F
Humidity 40%
Rainfall 0.00 in
Snow Depth Not available.
6:24 AM 5:28 PM
Waning Crescent, 2% visible
METAR KBVY 250853Z AUTO 17006KT 6SM BR OVC003 13/13 A2985 RMK AO2 RAE0758 SLP103 P0000 60000 T01280128 56005

Get Your Daily Forecast Email!

Thanks for signing up!

Be on the lookout for a verification email in your inbox.

You'll start receiving the daily forecast at 8 AM.

×

10-Day Weather Forecast

Almanac

Astronomy

Feb. 25, 2017 Rise Set
Actual Time
Civil Twilight
Nautical Twilight
Astronomical Twilight
Moon
Length of Visible Light
Length of Day
Tomorrow will be .
, % of the Moon is Illuminated

Today's Extremes

State Highs State Lows

Community

WunderPhotos

Upload Photos

1,962,540 photos uploaded!

WunderBlog® & News

Nearby

Air Quality

  Air Quality AQ Index Pollutant
Not available.

Snow Depth

Station Depth Elevation

Earthquake Activity

City Distance Mag. Time & Date
Minimum magnitude displayed is 2.5.

Coastal Water Temperatures

Place Temperature

Stations

Nearby Weather Stations

Station Location Temp. Windchill Dew Point Humidity Wind Precip. Elev Updated Type
                   

Watches & Warnings

There are currently no watches in effect.